createdAt,value
2019-02-24T00:00:39.423Z,99.90
2019-02-24T00:03:12.126Z,99.90
2019-02-24T00:05:41.636Z,99.90
2019-02-24T00:08:11.149Z,99.90
2019-02-24T00:10:41.123Z,99.90
2019-02-24T00:13:10.623Z,99.90
2019-02-24T00:15:44.360Z,99.90
2019-02-24T00:18:15.072Z,99.90
2019-02-24T00:20:44.589Z,99.90
2019-02-24T00:23:14.200Z,99.90
2019-02-24T00:25:45.669Z,99.90
2019-02-24T00:28:15.573Z,99.90
2019-02-24T00:30:45.985Z,99.90
2019-02-24T00:33:15.553Z,99.90
2019-02-24T00:35:46.388Z,99.90
2019-02-24T00:38:16.349Z,99.90
2019-02-24T00:40:46.629Z,99.90
2019-02-24T00:43:17.506Z,99.90
2019-02-24T00:46:12.501Z,99.90
2019-02-24T00:48:43.035Z,99.90
2019-02-24T00:51:12.908Z,99.90
2019-02-24T00:57:11.935Z,99.90
2019-02-24T00:59:43.108Z,99.90
2019-02-24T01:02:14.390Z,99.90
2019-02-24T01:04:46.754Z,99.90
2019-02-24T01:07:16.222Z,99.90
2019-02-24T01:09:45.713Z,99.90
2019-02-24T01:12:15.684Z,99.90
2019-02-24T01:14:45.607Z,99.90
2019-02-24T01:17:15.094Z,99.90
2019-02-24T01:19:45.026Z,99.90
2019-02-24T01:22:15.680Z,99.90
2019-02-24T01:24:45.918Z,99.90
2019-02-24T01:27:15.769Z,99.90
2019-02-24T01:29:46.782Z,99.90
2019-02-24T01:32:17.951Z,99.90
2019-02-24T01:34:49.318Z,99.90
2019-02-24T01:37:20.879Z,99.90
2019-02-24T01:39:50.488Z,99.90
2019-02-24T01:42:23.160Z,99.90
2019-02-24T01:44:54.906Z,99.90
2019-02-24T01:47:24.419Z,99.90
2019-02-24T01:49:54.284Z,99.90
2019-02-24T01:52:24.175Z,99.90
2019-02-24T01:54:56.113Z,99.90
2019-02-24T01:57:27.181Z,99.90
2019-02-24T01:59:58.464Z,99.90
2019-02-24T02:02:28.975Z,99.90
2019-02-24T02:04:58.803Z,99.90
2019-02-24T02:07:28.824Z,99.90
2019-02-24T02:09:58.686Z,99.90
2019-02-24T02:12:30.937Z,99.90
2019-02-24T02:15:02.343Z,99.90
2019-02-24T02:17:32.090Z,99.90
2019-02-24T02:20:01.695Z,99.90
2019-02-24T02:22:32.382Z,99.90
2019-02-24T02:25:02.686Z,99.90
2019-02-24T02:27:33.021Z,99.90
2019-02-24T02:30:04.109Z,99.90
2019-02-24T02:32:35.420Z,99.90
2019-02-24T02:35:07.938Z,99.90
2019-02-24T02:37:37.898Z,99.90
2019-02-24T02:40:08.904Z,99.90
2019-02-24T02:42:38.419Z,99.90
2019-02-24T02:45:08.565Z,99.90
2019-02-24T02:47:39.277Z,99.90
2019-02-24T02:50:09.633Z,99.90
2019-02-24T02:52:40.264Z,99.90
2019-02-24T02:55:09.744Z,99.90
2019-02-24T02:57:41.115Z,99.90
2019-02-24T03:00:27.397Z,99.90
2019-02-24T03:02:56.939Z,99.90
2019-02-24T03:05:26.524Z,99.90
2019-02-24T03:08:03.133Z,99.90
2019-02-24T03:10:32.649Z,99.90
2019-02-24T03:13:02.163Z,99.90
2019-02-24T03:15:32.044Z,99.90
2019-02-24T03:18:01.579Z,99.90
2019-02-24T03:20:31.695Z,99.90
2019-02-24T03:23:02.216Z,99.90
2019-02-24T03:25:33.569Z,99.90
2019-02-24T03:28:04.927Z,99.90
2019-02-24T03:30:37.047Z,99.90
2019-02-24T03:33:08.519Z,99.90
2019-02-24T03:35:38.908Z,99.90
2019-02-24T03:38:08.808Z,99.90
2019-02-24T03:40:38.295Z,99.90
2019-02-24T03:43:08.259Z,99.90
2019-02-24T03:45:37.750Z,99.90
2019-02-24T03:48:07.244Z,99.90
2019-02-24T03:50:36.780Z,99.90
2019-02-24T03:53:06.396Z,99.90
2019-02-24T03:55:36.250Z,99.90
2019-02-24T03:58:05.767Z,99.90
2019-02-24T04:00:35.735Z,99.90
2019-02-24T04:03:06.729Z,99.90
2019-02-24T04:05:38.274Z,99.90
2019-02-24T04:08:09.535Z,99.90
2019-02-24T04:10:39.580Z,99.90
2019-02-24T04:13:09.605Z,99.90
2019-02-24T04:15:39.509Z,99.90
2019-02-24T04:18:09.513Z,99.90
2019-02-24T04:20:39.052Z,99.90
2019-02-24T04:23:10.724Z,99.90
2019-02-24T04:25:40.604Z,99.90
2019-02-24T04:28:10.840Z,99.90
2019-02-24T04:30:40.340Z,99.90
2019-02-24T04:33:09.840Z,99.90
2019-02-24T04:35:39.368Z,99.90
2019-02-24T04:38:08.955Z,99.90
2019-02-24T04:40:38.810Z,99.90
2019-02-24T04:43:08.445Z,99.90
2019-02-24T04:45:37.968Z,99.90
2019-02-24T04:48:07.466Z,99.90
2019-02-24T04:50:36.992Z,99.90
2019-02-24T04:53:08.886Z,99.90
2019-02-24T04:55:40.203Z,99.90
2019-02-24T04:58:11.719Z,99.90
2019-02-24T05:00:41.622Z,99.90
2019-02-24T05:03:13.311Z,99.90
2019-02-24T05:05:45.993Z,99.90
2019-02-24T05:08:17.016Z,99.90
2019-02-24T05:10:46.901Z,99.90
2019-02-24T05:13:16.487Z,99.90
2019-02-24T05:15:46.042Z,99.90
2019-02-24T05:18:15.900Z,99.90
2019-02-24T05:20:47.234Z,99.90
2019-02-24T05:23:17.032Z,99.90
2019-02-24T05:25:48.783Z,99.90
2019-02-24T05:28:20.820Z,99.90
2019-02-24T05:30:51.975Z,99.90
2019-02-24T05:33:21.423Z,99.90
2019-02-24T05:35:53.743Z,99.90
2019-02-24T05:38:25.240Z,99.90
2019-02-24T05:40:55.153Z,99.90
2019-02-24T05:43:25.272Z,99.90
2019-02-24T05:45:56.752Z,99.90
2019-02-24T05:48:26.211Z,99.90
2019-02-24T05:50:55.762Z,99.90
2019-02-24T05:53:25.644Z,99.90
2019-02-24T05:55:55.577Z,99.90
2019-02-24T05:58:25.112Z,99.90
2019-02-24T06:00:54.647Z,99.90
2019-02-24T06:03:24.529Z,99.90
2019-02-24T06:05:55.215Z,99.90
2019-02-24T06:08:24.779Z,99.90
2019-02-24T06:10:54.318Z,99.90
2019-02-24T06:13:26.094Z,99.90
2019-02-24T06:15:55.583Z,99.90
2019-02-24T06:18:28.079Z,99.90
2019-02-24T06:20:59.445Z,99.90
2019-02-24T06:23:30.795Z,99.90
2019-02-24T06:26:03.549Z,99.90
2019-02-24T06:28:33.338Z,99.90
2019-02-24T06:31:02.959Z,99.90
2019-02-24T06:33:32.531Z,99.90
2019-02-24T06:36:02.601Z,99.90
2019-02-24T06:38:32.109Z,99.90
2019-02-24T06:41:01.637Z,99.90
2019-02-24T06:43:31.968Z,99.80
2019-02-24T06:46:01.862Z,99.90
2019-02-24T06:48:33.010Z,99.80
2019-02-24T06:51:05.074Z,99.90
2019-02-24T06:53:34.584Z,99.90
2019-02-24T06:56:04.565Z,99.90
2019-02-24T06:58:34.398Z,99.90
2019-02-24T07:01:04.960Z,99.90
2019-02-24T07:03:35.166Z,99.90
2019-02-24T07:06:04.669Z,99.90
2019-02-24T07:08:35.730Z,99.90
2019-02-24T07:11:07.248Z,99.90
2019-02-24T07:13:40.208Z,99.90
2019-02-24T07:16:12.474Z,99.90
2019-02-24T07:18:43.657Z,99.90
2019-02-24T07:21:14.664Z,99.90
2019-02-24T07:23:44.977Z,99.90
2019-02-24T07:26:14.478Z,99.90
2019-02-24T07:28:44.400Z,99.90
2019-02-24T07:31:21.335Z,99.90
2019-02-24T07:33:51.388Z,99.90
2019-02-24T07:36:22.575Z,99.90
2019-02-24T07:38:53.605Z,99.90
2019-02-24T07:41:23.263Z,99.90
2019-02-24T07:43:54.641Z,99.90
2019-02-24T07:46:24.756Z,99.90
2019-02-24T07:48:54.252Z,99.90
2019-02-24T07:51:23.880Z,99.90
2019-02-24T07:57:23.740Z,99.90
2019-02-24T07:59:54.081Z,99.90
2019-02-24T08:06:25.294Z,99.90
2019-02-24T08:08:54.810Z,99.90
2019-02-24T08:11:24.309Z,99.90
2019-02-24T08:13:54.007Z,99.90
2019-02-24T08:16:23.920Z,99.90
2019-02-24T08:18:53.400Z,99.90
2019-02-24T08:21:23.697Z,99.90
2019-02-24T08:23:53.242Z,99.90
2019-02-24T08:26:22.951Z,99.90
2019-02-24T08:28:53.341Z,99.90
2019-02-24T08:31:22.895Z,99.90
2019-02-24T08:33:53.176Z,99.90
2019-02-24T08:36:22.933Z,99.90
2019-02-24T08:38:52.785Z,99.90
2019-02-24T08:41:22.734Z,99.90
2019-02-24T08:43:55.459Z,99.90
2019-02-24T08:46:25.173Z,99.90
2019-02-24T08:48:56.365Z,99.90
2019-02-24T08:51:28.450Z,99.90
2019-02-24T08:53:59.972Z,99.90
2019-02-24T08:56:29.822Z,99.90
2019-02-24T08:58:59.774Z,99.90
2019-02-24T09:01:29.846Z,99.90
2019-02-24T09:03:59.361Z,99.90
2019-02-24T09:06:28.920Z,99.90
2019-02-24T09:08:58.818Z,99.90
2019-02-24T09:11:28.318Z,99.90
2019-02-24T09:13:58.233Z,99.90
2019-02-24T09:16:27.807Z,99.90
2019-02-24T09:18:57.384Z,99.90
2019-02-24T09:21:27.804Z,99.90
2019-02-24T09:23:59.040Z,99.90
2019-02-24T09:26:29.694Z,99.90
2019-02-24T09:29:02.247Z,99.90
2019-02-24T09:31:31.763Z,99.90
2019-02-24T09:34:03.487Z,99.90
2019-02-24T09:36:33.035Z,99.90
2019-02-24T09:39:02.560Z,99.90
2019-02-24T09:41:32.912Z,99.90
2019-02-24T09:44:02.857Z,99.90
2019-02-24T09:46:32.377Z,99.90
2019-02-24T09:49:02.251Z,99.90
2019-02-24T09:51:31.800Z,99.90
2019-02-24T09:54:02.768Z,99.90
2019-02-24T09:56:32.365Z,99.90
2019-02-24T09:59:01.936Z,99.90
2019-02-24T10:01:31.468Z,99.90
2019-02-24T10:04:01.006Z,99.90
2019-02-24T10:06:31.144Z,99.90
2019-02-24T10:09:00.660Z,99.90
2019-02-24T10:11:30.611Z,99.90
2019-02-24T10:14:00.162Z,99.90
2019-02-24T10:16:29.697Z,99.90
2019-02-24T10:18:59.218Z,99.90
2019-02-24T10:21:28.778Z,99.90
2019-02-24T10:23:58.717Z,99.90
2019-02-24T10:26:28.569Z,99.90
2019-02-24T10:28:58.137Z,99.90
2019-02-24T10:31:27.653Z,99.90
2019-02-24T10:33:57.220Z,99.90
2019-02-24T10:36:29.210Z,99.90
2019-02-24T10:38:58.310Z,99.90
2019-02-24T10:41:27.866Z,99.90
2019-02-24T10:43:57.406Z,99.90
2019-02-24T10:46:26.915Z,99.90
2019-02-24T10:49:03.100Z,99.90
2019-02-24T10:51:27.659Z,99.90
2019-02-24T10:53:59.460Z,99.90
2019-02-24T10:56:28.972Z,99.90
2019-02-24T10:58:58.517Z,99.90
2019-02-24T11:01:29.877Z,99.90
2019-02-24T11:03:59.249Z,99.90
2019-02-24T11:06:28.810Z,99.90
2019-02-24T11:08:58.323Z,99.90
2019-02-24T11:11:31.321Z,99.90
2019-02-24T11:14:01.004Z,99.90
2019-02-24T11:16:32.277Z,99.90
2019-02-24T11:19:01.786Z,99.90
2019-02-24T11:21:31.770Z,99.90
2019-02-24T11:24:10.045Z,99.90
2019-02-24T11:26:44.405Z,99.90
2019-02-24T11:29:13.934Z,99.90
2019-02-24T11:31:43.503Z,99.90
2019-02-24T11:34:13.048Z,99.90
2019-02-24T11:36:42.961Z,99.90
2019-02-24T11:39:12.920Z,99.80
2019-02-24T11:41:42.921Z,99.90
2019-02-24T11:44:12.809Z,99.90
2019-02-24T11:49:24.140Z,99.90
2019-02-24T11:52:19.992Z,99.90
2019-02-24T11:55:00.906Z,99.70
2019-02-24T11:57:34.081Z,98.60
2019-02-24T12:00:07.341Z,98.80
2019-02-24T12:02:41.637Z,98.70
2019-02-24T12:05:18.510Z,99.40
2019-02-24T12:11:31.251Z,98.50
2019-02-24T12:14:01.405Z,98.60
2019-02-24T12:16:36.079Z,99.10
2019-02-24T12:19:13.156Z,99.30
2019-02-24T12:21:43.405Z,98.90
2019-02-24T12:24:13.988Z,98.30
2019-02-24T12:26:48.143Z,97.80
2019-02-24T12:29:23.923Z,99.90
2019-02-24T12:33:00.490Z,99.90
2019-02-24T12:35:41.444Z,99.50
2019-02-24T12:38:16.144Z,98.10
2019-02-24T12:40:49.531Z,99.10
2019-02-24T12:43:24.924Z,98.80
2019-02-24T12:45:58.331Z,99.00
2019-02-24T12:48:35.226Z,98.70
2019-02-24T12:51:11.571Z,98.80
2019-02-24T12:53:44.708Z,98.80
2019-02-24T12:56:31.705Z,98.60
2019-02-24T12:59:05.762Z,98.10
2019-02-24T13:01:38.876Z,97.50
2019-02-24T13:04:11.038Z,94.90
2019-02-24T13:06:40.764Z,96.70
2019-02-24T13:09:15.872Z,96.90
2019-02-24T13:11:45.571Z,97.10
2019-02-24T13:14:15.212Z,96.40
2019-02-24T13:16:44.923Z,96.80
2019-02-24T13:19:16.756Z,96.20
2019-02-24T13:21:47.054Z,97.00
2019-02-24T13:24:17.395Z,96.80
2019-02-24T13:26:47.824Z,96.30
2019-02-24T13:29:23.225Z,96.20
2019-02-24T13:31:53.001Z,96.60
2019-02-24T13:34:22.961Z,94.90
2019-02-24T13:36:52.583Z,95.60
2019-02-24T13:39:22.278Z,95.40
2019-02-24T13:41:52.306Z,95.20
2019-02-24T13:44:26.020Z,95.50
2019-02-24T13:46:57.650Z,95.80
2019-02-24T13:49:27.297Z,96.00
2019-02-24T13:51:57.008Z,95.30
2019-02-24T13:54:26.771Z,96.70
2019-02-24T13:56:57.465Z,96.80
2019-02-24T13:59:32.584Z,95.40
2019-02-24T14:02:08.271Z,96.70
2019-02-24T14:04:38.097Z,97.20
2019-02-24T14:07:07.757Z,97.00
2019-02-24T14:09:43.879Z,96.20
2019-02-24T14:12:40.202Z,96.70
2019-02-24T14:15:11.042Z,95.40
2019-02-24T14:17:42.944Z,96.80
2019-02-24T14:20:15.413Z,96.90
2019-02-24T14:22:46.331Z,95.30
2019-02-24T14:25:17.608Z,94.20
2019-02-24T14:27:49.073Z,94.50
2019-02-24T14:30:41.664Z,95.70
2019-02-24T14:33:12.841Z,92.70
2019-02-24T14:35:44.850Z,91.90
2019-02-24T14:38:15.270Z,92.20
2019-02-24T14:40:45.432Z,93.90
2019-02-24T14:43:15.882Z,91.90
2019-02-24T14:45:49.636Z,91.70
2019-02-24T14:48:16.869Z,94.60
2019-02-24T14:50:46.493Z,94.10
2019-02-24T14:53:16.186Z,93.50
2019-02-24T14:55:45.829Z,92.50
2019-02-24T14:58:15.520Z,92.80
2019-02-24T15:00:47.024Z,93.20
2019-02-24T15:03:21.331Z,89.40
2019-02-24T15:05:52.949Z,92.00
2019-02-24T15:08:22.652Z,92.90
2019-02-24T15:10:52.439Z,91.80
2019-02-24T15:13:23.655Z,91.90
2019-02-24T15:15:54.947Z,91.40
2019-02-24T15:18:27.062Z,91.70
2019-02-24T15:20:57.971Z,89.80
2019-02-24T15:23:27.806Z,91.10
2019-02-24T15:25:57.461Z,89.20
2019-02-24T15:28:27.153Z,90.60
2019-02-24T15:30:56.797Z,90.50
2019-02-24T15:33:26.435Z,91.00
2019-02-24T15:35:56.168Z,91.20
2019-02-24T15:38:25.807Z,90.60
2019-02-24T15:40:55.870Z,90.00
2019-02-24T15:43:25.523Z,89.30
2019-02-24T15:45:55.155Z,88.90
2019-02-24T15:48:24.826Z,88.30
2019-02-24T15:50:58.394Z,88.50
2019-02-24T15:53:31.964Z,87.30
2019-02-24T15:56:03.790Z,86.80
2019-02-24T15:58:37.626Z,86.80
2019-02-24T16:01:10.970Z,86.60
2019-02-24T16:03:40.982Z,86.60
2019-02-24T16:06:10.639Z,86.20
2019-02-24T16:08:40.341Z,86.20
2019-02-24T16:11:10.018Z,85.90
2019-02-24T16:13:39.701Z,85.80
2019-02-24T16:16:09.430Z,85.90
2019-02-24T16:18:39.046Z,86.60
2019-02-24T16:21:08.744Z,86.40
2019-02-24T16:23:38.357Z,86.50
2019-02-24T16:26:07.996Z,86.30
2019-02-24T16:28:37.652Z,84.90
2019-02-24T16:31:07.280Z,84.80
2019-02-24T16:33:36.976Z,86.00
2019-02-24T16:36:06.654Z,86.00
2019-02-24T16:38:36.296Z,85.20
2019-02-24T16:41:05.908Z,85.90
2019-02-24T16:43:35.623Z,85.90
2019-02-24T16:46:05.393Z,85.00
2019-02-24T16:48:35.540Z,85.60
2019-02-24T16:51:05.193Z,85.60
2019-02-24T16:53:34.848Z,85.10
2019-02-24T16:56:04.455Z,85.40
2019-02-24T16:58:34.224Z,85.90
2019-02-24T17:01:03.920Z,85.10
2019-02-24T17:03:33.516Z,85.30
2019-02-24T17:06:03.236Z,85.40
2019-02-24T17:08:32.965Z,84.80
2019-02-24T17:11:07.268Z,85.50
2019-02-24T17:13:34.145Z,86.40
2019-02-24T17:16:04.282Z,86.40
2019-02-24T17:18:34.101Z,85.40
2019-02-24T17:21:03.833Z,84.60
2019-02-24T17:23:33.464Z,85.20
2019-02-24T17:26:03.147Z,85.70
2019-02-24T17:28:32.899Z,86.20
2019-02-24T17:31:02.550Z,85.90
2019-02-24T17:33:32.784Z,85.90
2019-02-24T17:36:02.569Z,86.40
2019-02-24T17:38:32.235Z,85.80
2019-02-24T17:41:01.866Z,85.10
2019-02-24T17:43:31.533Z,85.70
2019-02-24T17:46:01.145Z,85.10
2019-02-24T17:48:30.806Z,85.50
2019-02-24T17:51:00.607Z,86.20
2019-02-24T17:53:30.261Z,85.70
2019-02-24T17:55:59.903Z,84.90
2019-02-24T17:58:29.610Z,86.00
2019-02-24T18:01:01.481Z,86.20
2019-02-24T18:03:39.006Z,86.90
2019-02-24T18:06:02.751Z,86.00
2019-02-24T18:08:32.315Z,86.00
2019-02-24T18:11:02.020Z,85.40
2019-02-24T18:13:31.704Z,85.90
2019-02-24T18:16:03.651Z,86.10
2019-02-24T18:18:33.324Z,85.70
2019-02-24T18:21:03.081Z,85.30
2019-02-24T18:23:32.751Z,85.10
2019-02-24T18:26:02.807Z,85.20
2019-02-24T18:28:32.518Z,85.30
2019-02-24T18:31:02.167Z,84.40
2019-02-24T18:33:32.229Z,84.40
2019-02-24T18:36:03.666Z,84.30
2019-02-24T18:38:33.303Z,84.10
2019-02-24T18:41:02.945Z,85.00
2019-02-24T18:43:32.611Z,84.90
2019-02-24T18:46:02.238Z,84.60
2019-02-24T18:48:31.864Z,84.90
2019-02-24T18:51:01.585Z,84.60
2019-02-24T18:53:31.236Z,85.70
2019-02-24T18:56:00.861Z,85.50
2019-02-24T18:58:30.568Z,85.30
2019-02-24T19:01:00.261Z,85.40
2019-02-24T19:03:29.980Z,85.60
2019-02-24T19:05:59.826Z,85.40
2019-02-24T19:08:29.486Z,85.70
2019-02-24T19:11:05.891Z,86.20
2019-02-24T19:13:37.707Z,85.80
2019-02-24T19:16:20.560Z,86.20
2019-02-24T19:18:56.233Z,86.10
2019-02-24T19:21:33.429Z,85.90
2019-02-24T19:24:09.725Z,85.20
2019-02-24T19:26:47.906Z,86.00
2019-02-24T19:29:24.302Z,86.20
2019-02-24T19:31:55.224Z,85.80
2019-02-24T19:34:25.060Z,85.90
2019-02-24T19:36:58.041Z,86.30
2019-02-24T19:39:27.864Z,86.30
2019-02-24T19:41:58.619Z,85.70
2019-02-24T20:04:45.616Z,86.50
2019-02-24T20:07:30.970Z,86.50
2019-02-24T20:10:17.333Z,86.70
2019-02-24T20:13:11.884Z,87.10
2019-02-24T20:19:09.492Z,87.00
2019-02-24T20:21:39.151Z,87.90
2019-02-24T20:24:09.064Z,87.00
2019-02-24T20:26:38.903Z,88.00
2019-02-24T20:29:08.656Z,87.80
2019-02-24T20:31:38.457Z,87.10
2019-02-24T20:34:08.236Z,87.70
2019-02-24T20:36:37.867Z,88.00
2019-02-24T20:39:10.575Z,88.10
2019-02-24T20:41:42.353Z,87.40
2019-02-24T20:44:11.994Z,87.90
2019-02-24T20:46:41.625Z,87.00
2019-02-24T20:49:11.298Z,87.70
2019-02-24T20:51:40.920Z,88.00
2019-02-24T20:54:10.568Z,87.30
2019-02-24T20:56:40.241Z,88.70
2019-02-24T20:59:09.936Z,88.10
2019-02-24T21:01:39.673Z,88.40
2019-02-24T21:04:09.333Z,88.70
2019-02-24T21:06:38.972Z,87.20
2019-02-24T21:09:09.537Z,88.30
2019-02-24T21:11:39.271Z,88.50
2019-02-24T21:14:08.949Z,87.90
2019-02-24T21:16:38.604Z,88.10
2019-02-24T21:19:08.357Z,87.90
2019-02-24T21:21:37.973Z,88.60
2019-02-24T21:24:07.601Z,88.30
2019-02-24T21:26:37.309Z,88.20
2019-02-24T21:29:06.979Z,88.50
2019-02-24T21:31:36.627Z,88.60
2019-02-24T21:34:06.297Z,88.60
2019-02-24T21:36:35.963Z,88.50
2019-02-24T21:39:06.708Z,87.20
2019-02-24T21:41:36.411Z,88.10
2019-02-24T21:44:06.111Z,88.50
2019-02-24T21:46:35.698Z,87.20
2019-02-24T21:49:05.662Z,86.90
2019-02-24T21:51:35.317Z,87.20
2019-02-24T21:54:06.868Z,87.50
2019-02-24T21:56:36.291Z,88.00
2019-02-24T21:59:05.953Z,88.60
2019-02-24T22:01:35.554Z,87.90
2019-02-24T22:04:05.208Z,88.20
2019-02-24T22:06:34.855Z,87.10
2019-02-24T22:09:05.578Z,89.00
2019-02-24T22:11:35.251Z,87.90
2019-02-24T22:14:04.895Z,88.70
2019-02-24T22:16:34.597Z,87.70
2019-02-24T22:19:04.264Z,87.90
2019-02-24T22:21:33.870Z,87.90
2019-02-24T22:24:03.516Z,87.40
2019-02-24T22:26:33.167Z,87.80
2019-02-24T22:29:02.760Z,88.20
2019-02-24T22:31:32.408Z,88.20
2019-02-24T22:34:02.037Z,88.80
2019-02-24T22:36:31.652Z,87.70
2019-02-24T22:39:01.299Z,88.50
2019-02-24T22:41:30.983Z,88.00
2019-02-24T22:44:00.638Z,88.30
2019-02-24T22:46:30.222Z,89.00
2019-02-24T22:48:59.854Z,87.50
2019-02-24T22:51:29.492Z,88.60
2019-02-24T22:53:59.085Z,88.60
2019-02-24T22:56:28.729Z,88.00
2019-02-24T22:58:58.328Z,88.10
2019-02-24T23:01:31.869Z,89.20
2019-02-24T23:04:09.742Z,87.90
2019-02-24T23:06:39.390Z,87.70
2019-02-24T23:09:16.515Z,88.10
2019-02-24T23:11:46.223Z,88.80
2019-02-24T23:14:15.827Z,88.40
2019-02-24T23:16:45.535Z,88.40
2019-02-24T23:19:15.128Z,88.30
2019-02-24T23:21:44.784Z,88.80
2019-02-24T23:24:14.438Z,88.80
2019-02-24T23:26:44.052Z,89.20
2019-02-24T23:29:13.808Z,88.30
2019-02-24T23:31:43.435Z,89.00
2019-02-24T23:34:13.062Z,89.00
2019-02-24T23:36:42.731Z,90.00
2019-02-24T23:39:16.462Z,89.30
2019-02-24T23:41:47.209Z,89.60
2019-02-24T23:44:16.829Z,88.80
2019-02-24T23:46:46.475Z,88.80
2019-02-24T23:49:16.149Z,89.90
2019-02-24T23:51:45.780Z,88.90
2019-02-24T23:54:15.455Z,89.60
2019-02-24T23:56:45.084Z,89.10
2019-02-24T23:59:14.731Z,89.60
